Time;durP1;ratioP1;P1;durP2;ratioP2;P2;SDS_P1;SDS_P2;PMS_P1;PMS_P2;Temp;Humidity;BMP_temperature;BMP_pressure;BME280_temperature;BME280_humidity;BME280_pressure;Samples;Min_cycle;Max_cycle;Signal;HPM_P1;HPM_P2
2023/03/31 00:04:12;;;;;;;2.72;0.90;;;;;;;13.03;73.78;99384.09;10387883;28;20059;-64
2023/03/31 00:09:17;;;;;;;5.32;1.38;;;;;;;13.01;72.62;99367.38;10368876;28;20053;-68
2023/03/31 00:14:19;;;;;;;2.85;1.58;;;;;;;13.03;73.46;99380.56;10370922;28;20106;-63
2023/03/31 00:19:21;;;;;;;4.28;1.20;;;;;;;13.02;74.69;99366.38;10386771;28;20157;-63
2023/03/31 00:24:22;;;;;;;3.95;1.02;;;;;;;13.02;74.97;99369.06;10393190;28;20059;-62
2023/03/31 00:29:24;;;;;;;4.05;1.00;;;;;;;13.00;75.02;99344.34;10389087;28;20049;-63
2023/03/31 00:34:27;;;;;;;3.75;1.20;;;;;;;12.93;76.44;99348.66;10387958;28;20771;-67
2023/03/31 00:39:34;;;;;;;3.65;1.00;;;;;;;12.88;77.29;99353.63;10396631;28;20053;-63
2023/03/31 00:44:59;;;;;;;4.03;1.30;;;;;;;12.79;78.95;99327.88;10355736;28;20613;-64
2023/03/31 00:50:05;;;;;;;3.58;1.33;;;;;;;12.83;79.97;99326.56;10387084;28;20056;-63
2023/03/31 00:55:15;;;;;;;4.78;1.95;;;;;;;12.84;79.34;99320.25;10359068;28;20581;-64
2023/03/31 01:00:18;;;;;;;4.57;1.30;;;;;;;12.78;80.59;99291.50;10390735;28;20525;-66
2023/03/31 01:05:25;;;;;;;4.28;1.35;;;;;;;12.78;81.43;99288.84;10392235;28;20103;-64
2023/03/31 01:10:31;;;;;;;4.65;1.42;;;;;;;12.71;80.78;99284.13;10396186;28;20052;-63
2023/03/31 01:15:33;;;;;;;3.88;1.00;;;;;;;12.66;81.79;99274.94;10387938;28;20047;-62
2023/03/31 01:20:41;;;;;;;3.80;1.02;;;;;;;12.64;81.81;99266.25;10399419;28;20132;-63
2023/03/31 01:26:00;;;;;;;3.03;1.42;;;;;;;12.66;81.87;99265.09;10395192;28;20091;-63
2023/03/31 01:31:14;;;;;;;4.50;1.38;;;;;;;12.63;81.37;99264.59;10399648;28;20194;-63
2023/03/31 01:36:52;;;;;;;5.97;1.92;;;;;;;12.62;81.47;99250.38;10403551;28;20398;-63
2023/03/31 01:42:49;;;;;;;5.10;1.27;;;;;;;12.55;82.57;99239.53;10400967;28;20177;-62
2023/03/31 01:47:58;;;;;;;3.00;1.48;;;;;;;12.42;81.73;99206.28;10353939;28;20183;-64
2023/03/31 01:53:09;;;;;;;3.95;1.60;;;;;;;12.46;81.83;99212.94;10402098;28;20052;-63
2023/03/31 01:58:20;;;;;;;6.07;2.13;;;;;;;12.36;81.87;99192.56;10364488;28;20060;-63
2023/03/31 02:03:31;;;;;;;4.55;1.52;;;;;;;12.34;82.58;99188.38;10372373;28;20100;-64
2023/03/31 02:08:41;;;;;;;5.32;1.58;;;;;;;12.33;82.50;99174.22;10407586;28;20145;-63
2023/03/31 02:13:45;;;;;;;5.22;1.67;;;;;;;12.30;82.09;99163.88;10400050;28;20052;-63
2023/03/31 02:18:51;;;;;;;3.20;1.40;;;;;;;12.26;82.84;99161.69;10400680;28;20049;-63
2023/03/31 02:23:54;;;;;;;5.38;1.40;;;;;;;12.21;83.44;99143.50;10398847;28;20053;-63
2023/03/31 02:28:56;;;;;;;6.13;1.50;;;;;;;12.23;83.02;99138.81;10405146;28;20048;-63
2023/03/31 02:34:00;;;;;;;4.60;1.48;;;;;;;12.24;83.19;99140.50;10401313;28;20115;-64
2023/03/31 02:39:08;;;;;;;5.50;1.75;;;;;;;12.20;83.40;99129.34;10371175;28;20049;-64
2023/03/31 02:44:12;;;;;;;3.53;1.50;;;;;;;12.23;83.03;99116.66;10397362;28;20048;-64
2023/03/31 02:49:15;;;;;;;5.07;1.67;;;;;;;12.23;83.22;99112.16;10403110;28;20052;-63
2023/03/31 02:54:30;;;;;;;4.32;1.42;;;;;;;12.24;83.09;99105.81;10404009;28;20049;-63
2023/03/31 02:59:56;;;;;;;5.82;1.45;;;;;;;12.23;82.59;99103.31;10386935;28;20497;-63
2023/03/31 03:05:27;;;;;;;3.20;1.40;;;;;;;12.20;83.43;99091.97;10347085;28;20179;-63
2023/03/31 03:10:43;;;;;;;7.18;1.42;;;;;;;12.23;83.06;99073.97;10400396;28;20055;-63
2023/03/31 03:15:54;;;;;;;8.15;1.70;;;;;;;12.23;83.21;99055.28;10409329;28;20056;-63
2023/03/31 03:20:55;;;;;;;5.65;1.70;;;;;;;12.12;82.98;99029.75;10396782;28;20561;-63
2023/03/31 03:25:57;;;;;;;5.45;2.13;;;;;;;12.08;83.52;98996.41;10406286;28;20064;-63
2023/03/31 03:31:00;;;;;;;6.60;1.88;;;;;;;12.04;82.42;98979.91;10398772;28;20063;-63
2023/03/31 03:36:02;;;;;;;5.78;1.73;;;;;;;12.09;82.67;98974.91;10398227;28;20216;-63
2023/03/31 03:41:03;;;;;;;3.75;1.40;;;;;;;12.09;82.45;98977.56;10386794;28;20132;-63
2023/03/31 03:46:05;;;;;;;5.47;1.48;;;;;;;12.10;81.97;98991.72;10393360;28;20126;-63
2023/03/31 03:51:07;;;;;;;6.72;2.17;;;;;;;12.00;82.41;98968.72;10396175;28;20091;-63
2023/03/31 03:56:08;;;;;;;5.20;1.38;;;;;;;12.08;82.80;98951.88;10394700;28;20060;-64
2023/03/31 04:01:13;;;;;;;6.47;1.80;;;;;;;12.07;83.88;98930.72;10390463;28;20117;-63
2023/03/31 04:06:15;;;;;;;5.88;1.60;;;;;;;12.06;83.16;98929.06;10397199;28;20056;-62
2023/03/31 04:11:18;;;;;;;4.70;1.55;;;;;;;11.98;83.81;98892.53;10382543;28;20088;-62
2023/03/31 04:16:21;;;;;;;5.78;1.90;;;;;;;12.02;83.91;98902.72;10386647;28;20045;-62
2023/03/31 04:21:24;;;;;;;7.93;2.50;;;;;;;12.01;83.68;98901.06;10392795;28;20095;-63
2023/03/31 04:26:41;;;;;;;6.40;1.65;;;;;;;11.98;83.88;98885.38;10367054;28;20052;-63
2023/03/31 04:31:43;;;;;;;5.88;1.63;;;;;;;11.95;83.71;98901.72;10395101;28;20068;-62
2023/03/31 04:36:46;;;;;;;8.27;2.50;;;;;;;11.93;84.79;98890.38;10392130;28;20658;-63
2023/03/31 04:41:48;;;;;;;5.43;2.20;;;;;;;11.93;84.14;98885.03;10402670;28;20058;-63
2023/03/31 04:46:51;;;;;;;6.32;1.63;;;;;;;11.94;85.22;98878.72;10386353;28;20723;-62
2023/03/31 04:51:53;;;;;;;5.78;1.90;;;;;;;11.94;84.13;98862.72;10390529;28;20130;-63
2023/03/31 04:56:55;;;;;;;5.30;1.70;;;;;;;12.00;84.35;98834.56;10393808;28;20134;-63
2023/03/31 05:01:56;;;;;;;5.60;2.00;;;;;;;12.02;84.22;98825.41;10369890;28;20060;-62
2023/03/31 05:06:58;;;;;;;7.65;2.58;;;;;;;11.98;84.21;98826.72;10378974;28;20049;-63
2023/03/31 05:12:00;;;;;;;10.77;2.50;;;;;;;12.00;84.97;98822.03;10370821;28;20052;-63
2023/03/31 05:17:01;;;;;;;7.05;2.13;;;;;;;12.02;85.28;98832.53;10352044;28;20064;-62
2023/03/31 05:22:03;;;;;;;9.45;1.85;;;;;;;12.05;85.15;98853.53;10371199;28;20159;-62
2023/03/31 05:27:05;;;;;;;6.70;2.45;;;;;;;12.08;84.78;98831.03;10376974;28;20052;-65
2023/03/31 05:32:06;;;;;;;5.30;1.88;;;;;;;12.01;84.35;98825.56;10360541;28;20049;-62
2023/03/31 05:37:09;;;;;;;6.20;2.42;;;;;;;11.90;84.73;98813.34;10368170;28;20178;-62
2023/03/31 05:42:11;;;;;;;5.20;1.60;;;;;;;11.87;85.22;98818.19;10352277;28;20149;-62
2023/03/31 05:47:13;;;;;;;4.53;1.75;;;;;;;11.82;85.72;98824.03;10336189;28;20549;-62
2023/03/31 05:52:15;;;;;;;8.30;2.63;;;;;;;11.82;86.99;98808.03;10380991;28;20060;-62
2023/03/31 05:57:18;;;;;;;5.43;1.88;;;;;;;11.77;87.93;98802.34;10374771;28;20191;-64
2023/03/31 06:02:19;;;;;;;5.45;2.00;;;;;;;11.79;88.69;98782.53;10388037;28;20627;-60
2023/03/31 06:07:23;;;;;;;6.20;1.98;;;;;;;11.82;89.24;98762.72;10370681;28;20068;-60
2023/03/31 06:12:25;;;;;;;5.23;1.93;;;;;;;11.82;89.22;98742.19;10372923;28;20048;-60
2023/03/31 06:17:27;;;;;;;5.75;2.35;;;;;;;11.80;89.25;98738.03;10372026;28;20505;-61
2023/03/31 06:22:28;;;;;;;4.70;1.55;;;;;;;11.75;90.32;98721.72;10375291;28;20045;-61
2023/03/31 06:27:30;;;;;;;5.03;1.38;;;;;;;11.75;89.21;98708.38;10376975;28;21120;-64
2023/03/31 06:32:32;;;;;;;6.00;2.88;;;;;;;11.67;89.86;98683.41;10368785;28;20052;-64
2023/03/31 06:37:34;;;;;;;4.10;1.92;;;;;;;11.78;89.59;98670.72;10362920;28;20064;-63
2023/03/31 06:42:35;;;;;;;6.10;2.42;;;;;;;11.80;90.11;98653.56;10369430;28;20084;-62
2023/03/31 06:47:37;;;;;;;5.55;2.33;;;;;;;11.77;89.54;98634.41;10363993;28;20060;-64
2023/03/31 06:52:42;;;;;;;6.13;1.92;;;;;;;11.82;89.80;98627.56;10371761;28;20108;-64
2023/03/31 06:57:44;;;;;;;5.63;2.58;;;;;;;11.82;89.58;98608.09;10361232;28;20054;-67
2023/03/31 07:02:46;;;;;;;8.38;2.22;;;;;;;11.87;89.50;98603.06;10375307;28;20121;-64
2023/03/31 07:07:47;;;;;;;5.88;2.60;;;;;;;11.84;89.28;98587.41;10372086;28;20137;-65
2023/03/31 07:12:49;;;;;;;5.28;2.25;;;;;;;11.86;89.27;98577.41;10369865;28;20064;-66
2023/03/31 07:18:00;;;;;;;8.15;2.88;;;;;;;11.87;89.48;98554.25;10367724;28;20616;-64
2023/03/31 07:23:04;;;;;;;6.93;2.17;;;;;;;11.90;89.36;98553.91;10374991;28;20122;-64
2023/03/31 07:28:07;;;;;;;5.28;3.08;;;;;;;11.89;89.74;98566.41;10372180;28;20080;-65
2023/03/31 07:33:09;;;;;;;6.20;3.33;;;;;;;11.90;89.79;98554.72;10372444;28;20126;-65
2023/03/31 07:38:12;;;;;;;5.72;2.97;;;;;;;11.93;90.29;98559.72;10331899;28;20053;-67
2023/03/31 07:43:14;;;;;;;4.05;3.20;;;;;;;11.83;89.92;98567.91;10331749;28;20708;-66
2023/03/31 07:48:15;;;;;;;6.40;3.70;;;;;;;11.52;92.16;98599.00;10337858;28;20757;-65
2023/03/31 07:53:17;;;;;;;8.52;4.78;;;;;;;11.49;93.15;98586.84;10375329;28;20079;-64
2023/03/31 07:58:19;;;;;;;4.22;2.78;;;;;;;11.58;91.10;98569.84;10370706;28;20056;-64
2023/03/31 08:03:21;;;;;;;4.13;2.25;;;;;;;11.73;89.13;98566.47;10373059;28;20060;-64
2023/03/31 08:08:22;;;;;;;5.72;2.92;;;;;;;11.77;90.14;98557.09;10356577;28;20560;-65
2023/03/31 08:13:24;;;;;;;5.80;3.03;;;;;;;12.07;89.09;98590.19;10375326;28;21340;-64
2023/03/31 08:18:26;;;;;;;5.95;3.30;;;;;;;12.06;90.39;98571.69;10371562;28;20064;-68
2023/03/31 08:23:27;;;;;;;8.13;3.70;;;;;;;12.20;89.29;98570.94;10373893;28;20087;-64
2023/03/31 08:28:29;;;;;;;7.30;3.83;;;;;;;12.36;88.91;98578.03;10372261;28;20159;-64
2023/03/31 08:33:31;;;;;;;7.10;3.28;;;;;;;12.47;89.55;98579.44;10382734;28;20044;-66
2023/03/31 08:38:38;;;;;;;5.45;2.90;;;;;;;12.98;88.13;98566.38;10376973;28;20132;-65
2023/03/31 08:43:44;;;;;;;6.85;3.53;;;;;;;13.35;85.70;98562.06;10373614;28;20060;-68
2023/03/31 08:48:50;;;;;;;6.88;3.60;;;;;;;12.96;86.53;98563.06;10381358;28;20155;-64
2023/03/31 08:54:02;;;;;;;7.80;3.83;;;;;;;12.72;87.98;98546.25;10375370;28;20059;-65
2023/03/31 08:59:05;;;;;;;5.05;3.10;;;;;;;12.57;87.62;98548.03;10374598;28;20057;-64
2023/03/31 09:04:11;;;;;;;10.60;3.53;;;;;;;12.52;87.11;98563.72;10379670;28;20049;-66
2023/03/31 09:09:26;;;;;;;3.10;2.40;;;;;;;12.62;87.86;98556.31;10369894;28;20183;-65
2023/03/31 09:14:35;;;;;;;7.00;3.78;;;;;;;12.78;87.06;98554.56;10379353;28;20049;-65
2023/03/31 09:19:51;;;;;;;8.38;3.60;;;;;;;12.92;86.00;98543.06;10381246;28;20048;-65
2023/03/31 09:25:19;;;;;;;4.45;2.55;;;;;;;13.78;81.18;98535.53;10380639;28;20794;-66
2023/03/31 09:30:28;;;;;;;7.20;2.90;;;;;;;13.96;78.44;98534.28;10372982;28;20053;-67
2023/03/31 09:35:32;;;;;;;4.07;2.00;;;;;;;13.57;79.56;98538.09;10383033;28;20708;-65
2023/03/31 09:40:34;;;;;;;3.75;2.13;;;;;;;13.52;79.75;98535.16;10384326;28;20057;-64
2023/03/31 09:45:36;;;;;;;3.55;2.30;;;;;;;13.61;79.07;98526.03;10387514;28;20078;-63
2023/03/31 09:50:46;;;;;;;3.25;1.90;;;;;;;14.28;76.11;98513.47;10380713;28;20060;-64
2023/03/31 09:56:00;;;;;;;4.28;1.92;;;;;;;15.15;72.76;98515.06;10388144;28;20136;-65
2023/03/31 10:01:05;;;;;;;4.53;1.88;;;;;;;15.74;69.57;98494.97;10380958;28;20088;-65
2023/03/31 10:06:09;;;;;;;4.32;1.98;;;;;;;15.56;69.41;98479.41;10381330;28;20045;-65
2023/03/31 10:11:12;;;;;;;6.18;2.08;;;;;;;15.28;68.30;98486.69;10380005;28;20559;-65
2023/03/31 10:16:42;;;;;;;3.88;1.67;;;;;;;15.50;67.90;98474.84;10378065;28;20056;-65
2023/03/31 10:21:45;;;;;;;5.35;1.77;;;;;;;14.89;68.43;98477.34;10380613;28;20079;-66
2023/03/31 10:26:51;;;;;;;6.25;2.10;;;;;;;14.37;71.03;98480.19;10364820;28;20194;-63
2023/03/31 10:31:52;;;;;;;7.50;2.10;;;;;;;13.74;79.64;98480.75;10376401;28;20057;-70
2023/03/31 10:36:55;;;;;;;6.32;2.67;;;;;;;13.25;83.79;98516.03;10376184;28;20063;-66
2023/03/31 10:41:56;;;;;;;3.17;1.08;;;;;;;12.44;77.80;98537.13;10388890;28;20056;-64
2023/03/31 10:47:13;;;;;;;3.58;0.90;;;;;;;11.94;79.06;98508.06;10385958;28;20048;-64
2023/03/31 10:52:24;;;;;;;5.35;1.63;;;;;;;11.88;80.11;98479.41;10386194;28;20057;-66
2023/03/31 10:57:45;;;;;;;4.10;0.90;;;;;;;11.87;79.51;98467.09;10381971;28;20779;-65
2023/03/31 11:03:05;;;;;;;4.10;1.38;;;;;;;11.93;76.76;98460.25;10381872;28;20040;-66
2023/03/31 11:08:22;;;;;;;2.95;0.63;;;;;;;12.07;74.24;98456.00;10383948;28;20471;-67
2023/03/31 11:13:50;;;;;;;1.75;0.60;;;;;;;12.51;73.02;98458.00;10398084;28;20057;-63
2023/03/31 11:19:07;;;;;;;2.30;0.50;;;;;;;13.46;71.48;98463.75;10375907;28;20049;-63
2023/03/31 11:24:25;;;;;;;1.67;0.57;;;;;;;14.80;66.96;98463.28;10378553;28;20155;-65
2023/03/31 11:29:37;;;;;;;3.03;0.82;;;;;;;17.71;57.09;98458.06;10380995;28;20091;-68
2023/03/31 11:35:04;;;;;;;2.15;0.90;;;;;;;16.87;59.18;98447.91;10382137;28;20060;-66
2023/03/31 11:40:29;;;;;;;2.88;0.80;;;;;;;19.49;49.90;98431.00;10379057;28;20065;-68
2023/03/31 11:45:40;;;;;;;4.43;1.40;;;;;;;19.58;49.40;98435.03;10368679;28;20059;-66
2023/03/31 11:50:45;;;;;;;3.17;1.20;;;;;;;17.82;54.57;98433.16;10366012;28;20073;-68
2023/03/31 11:55:51;;;;;;;5.88;1.50;;;;;;;17.04;57.05;98426.81;10367740;28;20053;-67
2023/03/31 12:01:03;;;;;;;3.63;1.35;;;;;;;16.15;60.57;98430.72;10370256;28;20265;-67
2023/03/31 12:06:15;;;;;;;5.57;1.92;;;;;;;15.36;63.81;98419.53;10368992;28;20756;-65
2023/03/31 12:11:28;;;;;;;5.95;2.72;;;;;;;14.67;66.44;98413.97;10369919;28;20131;-67
2023/03/31 12:16:40;;;;;;;5.55;2.00;;;;;;;14.30;70.91;98405.19;10381703;28;20041;-65
2023/03/31 12:21:50;;;;;;;6.43;2.60;;;;;;;14.13;72.45;98409.16;10379731;28;20048;-63
2023/03/31 12:26:58;;;;;;;8.07;2.50;;;;;;;14.55;73.23;98391.41;10376584;28;20049;-65
2023/03/31 12:32:09;;;;;;;7.18;2.53;;;;;;;14.70;73.11;98388.66;10375763;28;20206;-65
2023/03/31 12:37:50;;;;;;;8.50;2.58;;;;;;;14.24;74.34;98415.84;10387017;28;20076;-67
2023/03/31 12:42:51;;;;;;;3.70;1.10;;;;;;;13.59;73.84;98375.69;10375983;28;20059;-67
2023/03/31 12:48:23;;;;;;;4.43;1.05;;;;;;;13.39;73.66;98394.16;10383017;28;20171;-63
2023/03/31 12:53:30;;;;;;;3.95;1.27;;;;;;;13.19;74.93;98386.69;10371821;28;20053;-66
2023/03/31 12:58:37;;;;;;;5.30;1.20;;;;;;;13.29;74.09;98378.41;10380136;28;20129;-68
2023/03/31 13:04:09;;;;;;;2.92;0.70;;;;;;;13.55;71.37;98395.78;10380047;28;20442;-69
2023/03/31 13:09:11;;;;;;;4.95;0.95;;;;;;;13.44;70.73;98392.59;10366523;28;20057;-69
2023/03/31 13:14:13;;;;;;;7.28;1.40;;;;;;;13.71;70.95;98379.53;10380441;28;20594;-69
2023/03/31 13:19:35;;;;;;;4.38;1.45;;;;;;;15.03;68.55;98371.94;10393029;28;21261;-67
2023/03/31 13:24:37;;;;;;;5.50;1.13;;;;;;;15.27;66.81;98349.16;10385632;28;20155;-65
2023/03/31 13:29:43;;;;;;;2.83;1.60;;;;;;;14.96;67.91;98345.09;10376489;28;20068;-65
2023/03/31 13:34:54;;;;;;;5.57;1.52;;;;;;;14.71;65.62;98352.78;10380974;28;20060;-65
2023/03/31 13:39:56;;;;;;;6.45;1.90;;;;;;;14.56;67.91;98365.44;10383247;28;20202;-65
2023/03/31 13:45:09;;;;;;;5.97;2.15;;;;;;;15.06;64.47;98347.44;10384578;28;20052;-63
2023/03/31 13:50:35;;;;;;;2.60;0.98;;;;;;;15.43;62.07;98329.22;10370162;28;20052;-65
2023/03/31 13:55:55;;;;;;;2.67;1.02;;;;;;;15.18;57.53;98343.16;10384810;28;20149;-68
2023/03/31 14:01:10;;;;;;;1.25;0.35;;;;;;;15.25;57.62;98342.34;10384339;28;20138;-69
2023/03/31 14:06:30;;;;;;;1.15;0.20;;;;;;;15.29;53.43;98338.25;10346818;28;20049;-70
2023/03/31 14:11:32;;;;;;;1.45;0.65;;;;;;;15.47;53.44;98335.00;10359314;28;20410;-66
2023/03/31 14:16:53;;;;;;;1.30;0.47;;;;;;;15.50;53.28;98330.06;10374828;28;20680;-65
2023/03/31 14:22:03;;;;;;;3.40;0.60;;;;;;;15.52;53.87;98329.84;10368106;28;20176;-67
2023/03/31 14:27:29;;;;;;;3.15;0.47;;;;;;;15.54;55.02;98331.31;10373342;28;20064;-69
2023/03/31 14:33:04;;;;;;;1.80;0.60;;;;;;;15.55;55.29;98326.75;10379351;28;20063;-69
2023/03/31 14:38:15;;;;;;;1.83;0.60;;;;;;;15.32;55.57;98322.59;10380645;28;20111;-69
2023/03/31 14:43:20;;;;;;;1.95;0.75;;;;;;;15.17;55.71;98325.41;10379340;28;20588;-69
2023/03/31 14:48:22;;;;;;;3.00;0.73;;;;;;;15.08;55.34;98321.25;10341709;28;20362;-69
2023/03/31 14:53:25;;;;;;;6.70;1.05;;;;;;;14.81;57.13;98309.59;10349299;28;20084;-67
2023/03/31 14:58:33;;;;;;;2.72;1.02;;;;;;;14.76;57.73;98328.13;10382650;28;20045;-69
2023/03/31 15:03:40;;;;;;;4.80;0.70;;;;;;;14.61;57.41;98320.22;10355675;28;20151;-69
2023/03/31 15:08:42;;;;;;;3.70;0.70;;;;;;;14.46;59.05;98307.72;10365768;28;20072;-69
2023/03/31 15:13:47;;;;;;;2.00;0.70;;;;;;;14.47;60.22;98313.88;10369127;28;20148;-70
2023/03/31 15:19:16;;;;;;;2.53;0.85;;;;;;;14.23;65.71;98342.78;10367407;28;20049;-69
2023/03/31 15:24:18;;;;;;;3.78;0.70;;;;;;;13.83;70.88;98338.94;10380486;28;20051;-68
2023/03/31 15:29:32;;;;;;;2.90;0.55;;;;;;;13.63;68.24;98339.56;10386298;28;20256;-70
2023/03/31 15:34:35;;;;;;;1.52;0.50;;;;;;;13.49;69.37;98327.88;10381204;28;20164;-71
2023/03/31 15:39:38;;;;;;;1.50;0.40;;;;;;;13.50;69.77;98352.78;10381073;28;20053;-70
2023/03/31 15:44:45;;;;;;;2.00;0.65;;;;;;;13.47;70.41;98366.53;10381695;28;20068;-70
2023/03/31 15:50:01;;;;;;;4.82;0.98;;;;;;;13.60;70.65;98366.63;10388286;28;20650;-72
2023/03/31 15:55:22;;;;;;;4.00;1.00;;;;;;;13.60;71.29;98363.97;10374276;28;20052;-70
2023/03/31 16:00:33;;;;;;;4.15;1.00;;;;;;;13.52;71.98;98353.41;10381682;28;20041;-70
2023/03/31 16:05:41;;;;;;;4.68;0.88;;;;;;;13.36;71.19;98349.94;10373366;28;20059;-70
2023/03/31 16:11:03;;;;;;;2.83;0.90;;;;;;;13.28;71.84;98339.34;10387374;28;20686;-72
2023/03/31 16:16:13;;;;;;;4.88;1.10;;;;;;;13.30;70.97;98328.44;10375176;28;20501;-72
2023/03/31 16:21:27;;;;;;;4.43;1.08;;;;;;;13.35;70.64;98345.63;10372583;28;20203;-70
2023/03/31 16:26:28;;;;;;;4.45;0.95;;;;;;;13.29;71.59;98346.34;10365732;28;25338;-71
2023/03/31 16:31:35;;;;;;;3.85;0.90;;;;;;;13.27;72.83;98348.38;10372476;28;20629;-71
2023/03/31 16:36:38;;;;;;;4.47;1.50;;;;;;;13.08;75.06;98358.63;10369311;28;20151;-71
2023/03/31 16:41:39;;;;;;;4.13;1.67;;;;;;;12.80;76.11;98355.78;10382338;28;20091;-70
2023/03/31 16:46:41;;;;;;;2.03;0.73;;;;;;;12.80;76.81;98357.63;10361442;28;20048;-70
2023/03/31 16:51:42;;;;;;;3.60;1.50;;;;;;;12.67;77.61;98343.09;10377103;28;20053;-71
2023/03/31 16:56:46;;;;;;;6.75;1.35;;;;;;;12.53;78.52;98344.72;10382779;28;20374;-70
2023/03/31 17:01:48;;;;;;;4.05;1.25;;;;;;;12.42;78.83;98347.03;10381006;28;20125;-71
2023/03/31 17:06:51;;;;;;;4.32;1.27;;;;;;;12.45;79.88;98350.16;10379401;28;20086;-72
2023/03/31 17:11:52;;;;;;;7.78;2.10;;;;;;;12.49;79.99;98342.59;10378019;28;20568;-72
2023/03/31 17:16:55;;;;;;;3.45;1.17;;;;;;;12.40;80.31;98352.53;10379529;28;20053;-70
2023/03/31 17:22:00;;;;;;;4.43;1.27;;;;;;;12.43;82.14;98352.19;10381532;28;20063;-73
2023/03/31 17:27:02;;;;;;;6.82;1.80;;;;;;;12.34;82.61;98346.09;10380157;28;20044;-71
2023/03/31 17:32:03;;;;;;;3.40;1.42;;;;;;;12.31;82.95;98350.94;10373616;28;20505;-71
2023/03/31 17:37:05;;;;;;;4.07;1.50;;;;;;;12.28;83.13;98341.47;10377761;28;20056;-71
2023/03/31 17:42:08;;;;;;;5.32;1.83;;;;;;;12.33;82.68;98349.75;10380482;28;20060;-70
2023/03/31 17:47:10;;;;;;;4.25;1.40;;;;;;;12.27;83.14;98358.47;10377820;28;20061;-66
2023/03/31 17:52:12;;;;;;;6.53;1.38;;;;;;;12.27;82.75;98352.34;10377045;28;20159;-70
2023/03/31 17:57:14;;;;;;;3.92;1.40;;;;;;;12.22;84.24;98362.69;10381486;28;20468;-71
2023/03/31 18:02:16;;;;;;;5.57;1.25;;;;;;;12.22;83.88;98374.22;10383457;28;20166;-70
2023/03/31 18:07:19;;;;;;;5.32;1.70;;;;;;;12.19;83.70;98379.91;10383813;28;20051;-72
2023/03/31 18:12:20;;;;;;;5.68;1.65;;;;;;;12.10;85.02;98383.63;10381563;28;20063;-70
2023/03/31 18:17:23;;;;;;;4.38;1.60;;;;;;;12.11;86.20;98395.97;10377218;28;20053;-70
2023/03/31 18:22:28;;;;;;;4.35;1.75;;;;;;;12.07;84.86;98392.00;10376540;28;20115;-69
2023/03/31 18:27:30;;;;;;;5.40;1.67;;;;;;;11.97;86.02;98381.56;10362896;28;20640;-69
2023/03/31 18:32:31;;;;;;;4.10;1.35;;;;;;;11.93;85.05;98385.59;10357367;28;20056;-68
2023/03/31 18:37:36;;;;;;;5.20;1.77;;;;;;;11.93;84.42;98401.59;10382427;28;20180;-69
2023/03/31 18:42:39;;;;;;;7.10;1.77;;;;;;;11.97;85.03;98400.25;10364868;28;21036;-69
2023/03/31 18:47:40;;;;;;;4.93;2.20;;;;;;;11.92;85.54;98415.91;10391223;28;20472;-69
2023/03/31 18:52:42;;;;;;;7.32;2.60;;;;;;;11.93;85.88;98421.09;10382786;28;20104;-69
2023/03/31 18:57:44;;;;;;;7.05;2.28;;;;;;;11.92;85.94;98422.06;10393998;28;20163;-73
2023/03/31 19:02:45;;;;;;;4.28;1.92;;;;;;;11.82;85.84;98416.13;10389941;28;20067;-70
2023/03/31 19:07:47;;;;;;;5.97;1.98;;;;;;;11.78;85.00;98412.16;10384609;28;20428;-70
2023/03/31 19:12:49;;;;;;;6.65;2.08;;;;;;;11.76;85.50;98422.19;10391070;28;20048;-70
2023/03/31 19:17:51;;;;;;;5.90;2.25;;;;;;;11.81;85.74;98414.47;10384353;28;20053;-70
2023/03/31 19:22:52;;;;;;;4.10;1.58;;;;;;;11.78;84.04;98412.16;10386824;28;20527;-70
2023/03/31 19:27:55;;;;;;;4.95;1.70;;;;;;;11.73;83.82;98418.03;10376212;28;20052;-68
2023/03/31 19:32:57;;;;;;;7.30;2.40;;;;;;;11.83;83.37;98420.47;10389728;28;20646;-70
2023/03/31 19:37:58;;;;;;;3.72;1.55;;;;;;;11.80;82.60;98412.81;10383952;28;20197;-69
2023/03/31 19:43:00;;;;;;;3.22;0.93;;;;;;;11.74;80.49;98402.84;10394493;28;20087;-69
2023/03/31 19:48:02;;;;;;;1.83;0.80;;;;;;;11.68;80.93;98412.41;10384092;28;20159;-71
2023/03/31 19:53:03;;;;;;;3.78;1.10;;;;;;;11.68;80.04;98399.91;10378433;28;20886;-69
2023/03/31 19:58:05;;;;;;;3.35;1.45;;;;;;;11.72;79.24;98399.53;10401804;28;20421;-69
2023/03/31 20:03:07;;;;;;;4.53;1.27;;;;;;;11.65;78.58;98397.59;10397410;28;20151;-70
2023/03/31 20:08:08;;;;;;;3.78;1.30;;;;;;;11.63;77.86;98390.75;10415075;28;20052;-69
2023/03/31 20:13:11;;;;;;;4.28;0.82;;;;;;;11.58;77.59;98401.94;10391799;28;20040;-70
2023/03/31 20:18:13;;;;;;;3.88;1.23;;;;;;;11.55;76.76;98402.31;10411101;28;20065;-70
2023/03/31 20:23:15;;;;;;;2.63;0.90;;;;;;;11.58;76.90;98414.44;10399697;28;20057;-69
2023/03/31 20:28:16;;;;;;;2.15;0.73;;;;;;;11.54;75.95;98411.28;10395950;28;20850;-73
2023/03/31 20:33:18;;;;;;;1.90;0.70;;;;;;;11.54;75.34;98416.63;10388964;28;20060;-69
2023/03/31 20:38:19;;;;;;;2.17;0.60;;;;;;;11.55;74.53;98426.28;10396328;28;20100;-69
2023/03/31 20:43:21;;;;;;;2.15;0.75;;;;;;;11.55;74.92;98414.81;10406972;28;20486;-69
2023/03/31 20:48:24;;;;;;;2.58;0.80;;;;;;;11.58;74.02;98425.94;10399561;28;20394;-70
2023/03/31 20:53:26;;;;;;;2.97;0.60;;;;;;;11.53;73.75;98428.31;10401263;28;20060;-68
2023/03/31 20:58:27;;;;;;;6.28;1.50;;;;;;;11.56;74.02;98419.97;10394041;28;20733;-70
2023/03/31 21:03:29;;;;;;;3.50;1.05;;;;;;;11.47;73.16;98421.00;10413421;28;20048;-70
2023/03/31 21:08:31;;;;;;;5.00;1.52;;;;;;;11.42;73.37;98424.16;10398781;28;20045;-69
2023/03/31 21:13:34;;;;;;;3.00;1.25;;;;;;;11.43;73.13;98430.34;10384169;28;20053;-73
2023/03/31 21:18:36;;;;;;;3.85;1.00;;;;;;;11.43;72.83;98428.50;10399099;28;20189;-70
2023/03/31 21:23:39;;;;;;;5.35;1.38;;;;;;;11.42;73.41;98421.50;10410815;28;20045;-69
2023/03/31 21:28:42;;;;;;;3.45;0.63;;;;;;;11.39;73.27;98431.69;10400161;28;20162;-70
2023/03/31 21:33:46;;;;;;;3.80;1.10;;;;;;;11.43;73.39;98433.81;10396877;28;20140;-69
2023/03/31 21:38:48;;;;;;;2.53;0.63;;;;;;;11.39;73.82;98431.69;10402449;28;20052;-70
2023/03/31 21:43:50;;;;;;;3.75;0.82;;;;;;;11.40;73.64;98428.84;10403004;28;20620;-73
2023/03/31 21:48:52;;;;;;;3.90;1.00;;;;;;;11.34;74.28;98434.06;10397221;28;21413;-69
2023/03/31 21:53:54;;;;;;;2.85;1.23;;;;;;;11.38;74.43;98416.69;10398022;28;20767;-69
2023/03/31 21:58:56;;;;;;;3.42;0.60;;;;;;;11.42;74.52;98426.00;10401475;28;20072;-72
2023/03/31 22:03:58;;;;;;;4.50;1.42;;;;;;;11.29;74.52;98414.09;10403829;28;20595;-68
2023/03/31 22:08:59;;;;;;;2.33;0.60;;;;;;;11.28;74.75;98415.06;10400433;28;20173;-69
2023/03/31 22:14:01;;;;;;;4.55;1.00;;;;;;;11.25;74.79;98415.44;10390090;28;20676;-68
2023/03/31 22:19:04;;;;;;;3.47;0.82;;;;;;;11.29;75.08;98421.25;10397777;28;20159;-68
2023/03/31 22:24:09;;;;;;;4.18;1.00;;;;;;;11.21;74.76;98419.44;10401178;28;20045;-66
2023/03/31 22:29:14;;;;;;;4.03;1.08;;;;;;;11.12;74.84;98408.00;10400466;28;20070;-67
2023/03/31 22:34:18;;;;;;;2.50;0.80;;;;;;;11.22;74.60;98417.63;10399243;28;20053;-68
2023/03/31 22:39:19;;;;;;;2.53;1.03;;;;;;;11.22;74.80;98415.78;10392675;28;20048;-68
2023/03/31 22:44:21;;;;;;;3.05;1.33;;;;;;;11.23;74.80;98417.44;10394276;28;20094;-68
2023/03/31 22:49:23;;;;;;;2.33;1.25;;;;;;;11.21;74.54;98407.97;10399156;28;20556;-68
2023/03/31 22:54:24;;;;;;;3.83;1.05;;;;;;;11.20;74.31;98417.78;10398648;28;20144;-68
2023/03/31 22:59:26;;;;;;;2.47;0.77;;;;;;;11.15;74.03;98409.47;10401732;28;20060;-68
2023/03/31 23:04:28;;;;;;;6.25;1.02;;;;;;;11.17;74.20;98418.13;10401465;28;20072;-67
2023/03/31 23:09:30;;;;;;;5.35;1.17;;;;;;;11.17;73.83;98418.13;10398079;28;20482;-68
2023/03/31 23:14:31;;;;;;;2.30;0.90;;;;;;;11.18;73.83;98414.44;10400636;28;20052;-67
2023/03/31 23:19:33;;;;;;;3.58;0.90;;;;;;;11.21;73.19;98422.09;10402023;28;20053;-68
2023/03/31 23:24:35;;;;;;;7.13;1.30;;;;;;;11.16;73.19;98405.81;10404261;28;20497;-69
2023/03/31 23:29:36;;;;;;;4.03;1.00;;;;;;;11.10;73.33;98407.31;10402125;28;20105;-69
2023/03/31 23:34:40;;;;;;;2.75;1.33;;;;;;;11.13;73.43;98406.16;10401299;28;20126;-68
2023/03/31 23:39:42;;;;;;;3.75;0.88;;;;;;;11.07;72.55;98412.19;10397007;28;20065;-68
2023/03/31 23:44:43;;;;;;;2.97;0.90;;;;;;;11.04;72.90;98418.66;10400700;28;20513;-68